Pays
Station

 

Conditions  météo  pour  Deming, Deming Municipal Airport  -  Etats-Unis    Etats-Unis

  
10 °C
    
 
 

METAR pour Deming, Deming Municipal Airport :

KDMN 142353Z AUTO 12003KT 10SM CLR 10/M12 A3033 RMK AO2 SLP267 T01001117 10128 20083 55008

 

Voici le bulletin pour Deming, Deming Municipal Airport - Etats-Unis.
 
Le bulletin a été fait il y a 11 minutes, à 23:53 UTC .
Le vent soufflait à la vitesse de 1.5 mètres par seconde de Est/Sud-est (120°).
 
La température était de 10 °C, avec un point de rosée à -12 °C.
La pression atmosphérique était de 1027 hPa.
L'humidité relative était de 19.8%.
 
Le ciel était clair.
 
La visibilité globale était de 16.1 kilomètres.
 

 
 
 

Pays :   A   B   C   D   E   F   G   H   I   J   K   L   M   N   O   P   Q   R   S   T   U   V   W   Y   Z

 

Partenaires :  Info Météo avec Met'info
Météo Marine avec MeteoMarine.net
Infos Site  |  Infos Légales  |  Crédits  |  Confidentialité
Contactez-nous  |  Ajouter aux favoris
© 2013-2018 METAR - Tous droits réservés